Observation data for Gail on 01/20/2019      Previous  Date  Next       Current Mesonet Observations  Soil Data  Daily Summary Page  Observations in Plain Language
KGGS 200600Z 16003KT 00/M05 A3031 RMK A01 T00041048  RH  069%=      5-min Rain = 0
KGGS 200605Z 15003KT M00/M05 A3031 RMK A01 T10031051  RH  070%=      5-min Rain = 0
KGGS 200610Z 16003KT M00/M05 A3032 RMK A01 T10021047  RH  072%=      5-min Rain = 0
KGGS 200615Z 17003KT M00/M05 A3032 RMK A01 T10021048  RH  071%=      5-min Rain = 0
KGGS 200620Z 15002KT M00/M05 A3032 RMK A01 T10041050  RH  071%=      5-min Rain = 0
KGGS 200625Z 16004KT M01/M05 A3031 RMK A01 T10071050  RH  073%=      5-min Rain = 0
KGGS 200630Z 15004KT M00/M05 A3032 RMK A01 T10021047  RH  072%=      5-min Rain = 0
KGGS 200635Z 16003KT M00/M05 A3032 RMK A01 T10041049  RH  072%=      5-min Rain = 0
KGGS 200640Z 16003KT 00/M05 A3032 RMK A01 T00031045  RH  070%=      5-min Rain = 0
KGGS 200645Z 15003KT 00/M05 A3032 RMK A01 T00011048  RH  070%=      5-min Rain = 0
KGGS 200650Z 14002KT M01/M05 A3032 RMK A01 T10071053  RH  071%=      5-min Rain = 0
KGGS 200655Z 11002KT M01/M05 A3032 RMK A01 T10101052  RH  073%=      5-min Rain = 0
KGGS 200700Z 12004KT M01/M05 A3032 RMK A01 T10111051  RH  074%=      5-min Rain = 0
KGGS 200705Z 10003KT M01/M05 A3032 RMK A01 T10111051  RH  075%=      5-min Rain = 0
KGGS 200710Z 10006KT M01/M05 A3031 RMK A01 T10101049  RH  075%=      5-min Rain = 0
KGGS 200715Z 09005KT 00/M04 A3031 RMK A01 T00011042  RH  073%=      5-min Rain = 0
KGGS 200720Z 07004KT 00/04 A3032 RMK A01 T00-00-44  RH  072%=      5-min Rain = 0
KGGS 200725Z 07003KT M00/M05 A3031 RMK A01 T10021045  RH  073%=      5-min Rain = 0
KGGS 200730Z 07004KT M00/M05 A3031 RMK A01 T10041046  RH  073%=      5-min Rain = 0
KGGS 200735Z 07004KT M01/M05 A3031 RMK A01 T10091051  RH  074%=      5-min Rain = 0
KGGS 200740Z 08005KT M01/M05 A303 RMK A01 T10111049  RH  075%=      5-min Rain = 0
KGGS 200745Z 10004KT M01/M05 A303 RMK A01 T10071046  RH  075%=      5-min Rain = 0
KGGS 200750Z 12004KT M01/M05 A303 RMK A01 T10061049  RH  073%=      5-min Rain = 0
KGGS 200755Z 12003KT M01/M05 A3031 RMK A01 T10081051  RH  073%=      5-min Rain = 0
KGGS 200800Z 12002KT M01/M05 A3031 RMK A01 T10111053  RH  073%=      5-min Rain = 0
KGGS 200805Z 12003KT M01/M05 A3031 RMK A01 T10101052  RH  073%=      5-min Rain = 0
KGGS 200810Z 12003KT M01/M05 A303 RMK A01 T10101054  RH  073%=      5-min Rain = 0
KGGS 200815Z 11003KT M01/M06 A3031 RMK A01 T10121055  RH  073%=      5-min Rain = 0
KGGS 200820Z 10003KT M02/M06 A3031 RMK A01 T10151056  RH  074%=      5-min Rain = 0
KGGS 200825Z 10004KT M02/M06 A3031 RMK A01 T10171056  RH  075%=      5-min Rain = 0
KGGS 200830Z 10004KT M02/M06 A3031 RMK A01 T10171056  RH  075%=      5-min Rain = 0
KGGS 200835Z 09004KT M02/M06 A3031 RMK A01 T10181057  RH  075%=      5-min Rain = 0
KGGS 200840Z 10004KT M02/M06 A303 RMK A01 T10171056  RH  075%=      5-min Rain = 0
KGGS 200845Z 11004KT M02/M06 A3031 RMK A01 T10171056  RH  075%=      5-min Rain = 0
KGGS 200850Z 10004KT M02/M06 A3031 RMK A01 T10181056  RH  075%=      5-min Rain = 0
KGGS 200855Z 12004KT M02/M06 A3031 RMK A01 T10181056  RH  075%=      5-min Rain = 0
KGGS 200900Z 11005KT M02/M06 A3031 RMK A01 T10171056  RH  075%=      5-min Rain = 0
KGGS 200905Z 12004KT M02/M06 A3031 RMK A01 T10161057  RH  074%=      5-min Rain = 0
KGGS 200910Z 12004KT M02/M06 A3031 RMK A01 T10161058  RH  073%=      5-min Rain = 0
KGGS 200915Z 14004KT M02/M06 A3031 RMK A01 T10181059  RH  073%=      5-min Rain = 0
KGGS 200920Z 14005KT M02/M06 A303 RMK A01 T10191060  RH  073%=      5-min Rain = 0
KGGS 200925Z 13005KT M02/M06 A303 RMK A01 T10171060  RH  073%=      5-min Rain = 0
KGGS 200930Z 12004KT M02/M06 A303 RMK A01 T10161060  RH  072%=      5-min Rain = 0
KGGS 200935Z 12004KT M02/M06 A3031 RMK A01 T10151060  RH  072%=      5-min Rain = 0
KGGS 200940Z 12003KT M01/M06 A3031 RMK A01 T10141062  RH  070%=      5-min Rain = 0
KGGS 200945Z 11002KT M01/M06 A3031 RMK A01 T10141063  RH  069%=      5-min Rain = 0
KGGS 200950Z 12001KT M02/M07 A3031 RMK A01 T10151065  RH  069%=      5-min Rain = 0
KGGS 200955Z 10001KT M02/M07 A3031 RMK A01 T10191067  RH  070%=      5-min Rain = 0
KGGS 201000Z 09001KT M02/M07 A303 RMK A01 T10211068  RH  071%=      5-min Rain = 0
KGGS 201005Z 09001KT M02/M07 A3031 RMK A01 T10231068  RH  072%=      5-min Rain = 0
KGGS 201010Z 09002KT M02/M07 A3031 RMK A01 T10231066  RH  072%=      5-min Rain = 0
KGGS 201015Z 10002KT M02/M07 A303 RMK A01 T10221065  RH  072%=      5-min Rain = 0
KGGS 201020Z 09002KT M02/M07 A303 RMK A01 T10221065  RH  072%=      5-min Rain = 0
KGGS 201025Z 08002KT M02/M06 A303 RMK A01 T10221064  RH  073%=      5-min Rain = 0
KGGS 201030Z 08001KT M02/M06 A303 RMK A01 T10231064  RH  073%=      5-min Rain = 0
KGGS 201035Z 08000KT M02/M07 A303 RMK A01 T10241065  RH  074%=      5-min Rain = 0
KGGS 201040Z 08001KT M02/M06 A303 RMK A01 T10241064  RH  074%=      5-min Rain = 0
KGGS 201045Z 09002KT M02/M07 A303 RMK A01 T10241065  RH  074%=      5-min Rain = 0
KGGS 201050Z 10002KT M02/M07 A303 RMK A01 T10241065  RH  074%=      5-min Rain = 0
KGGS 201055Z 10002KT M02/M07 A303 RMK A01 T10231065  RH  073%=      5-min Rain = 0
KGGS 201100Z 10003KT M02/M07 A3029 RMK A01 T10201065  RH  072%=      5-min Rain = 0
KGGS 201105Z 10002KT M02/M07 A3029 RMK A01 T10211067  RH  071%=      5-min Rain = 0
KGGS 201110Z 11002KT M02/M07 A3029 RMK A01 T10211068  RH  070%=      5-min Rain = 0
KGGS 201115Z 11003KT M02/M07 A3029 RMK A01 T10191067  RH  070%=      5-min Rain = 0
KGGS 201120Z 11003KT M02/M07 A3029 RMK A01 T10171067  RH  069%=      5-min Rain = 0
KGGS 201125Z 11003KT M02/M07 A3029 RMK A01 T10171068  RH  068%=      5-min Rain = 0
KGGS 201130Z 11002KT M02/M07 A3029 RMK A01 T10181068  RH  068%=      5-min Rain = 0
KGGS 201135Z 12002KT M02/M07 A3029 RMK A01 T10191069  RH  069%=      5-min Rain = 0
KGGS 201140Z 12003KT M02/M07 A3029 RMK A01 T10181068  RH  069%=      5-min Rain = 0
KGGS 201145Z 11003KT M02/M07 A3029 RMK A01 T10191068  RH  069%=      5-min Rain = 0
KGGS 201150Z 12004KT M02/M07 A3028 RMK A01 T10201068  RH  070%=      5-min Rain = 0
KGGS 201155Z 11004KT M02/M07 A3029 RMK A01 T10211067  RH  071%=      5-min Rain = 0
KGGS 201200Z 12003KT M02/M07 A3029 RMK A01 T10201065  RH  071%=      5-min Rain = 0
KGGS 201205Z 12005KT M02/M06 A3029 RMK A01 T10201064  RH  072%=      5-min Rain = 0
KGGS 201210Z 12006KT M02/M06 A3028 RMK A01 T10191061  RH  073%=      5-min Rain = 0
KGGS 201215Z 12005KT M02/M06 A3028 RMK A01 T10191061  RH  073%=      5-min Rain = 0
KGGS 201220Z 12005KT M02/M06 A3028 RMK A01 T10201060  RH  074%=      5-min Rain = 0
KGGS 201225Z 13006KT M02/M06 A3028 RMK A01 T10201060  RH  075%=      5-min Rain = 0
KGGS 201230Z 13005KT M02/M06 A3028 RMK A01 T10211060  RH  075%=      5-min Rain = 0
KGGS 201235Z 13005KT M02/M06 A3027 RMK A01 T10231060  RH  076%=      5-min Rain = 0
KGGS 201240Z 12005KT M02/M06 A3028 RMK A01 T10241060  RH  077%=      5-min Rain = 0
KGGS 201245Z 13005KT M02/M06 A3028 RMK A01 T10241059  RH  077%=      5-min Rain = 0
KGGS 201250Z 14005KT M02/M06 A3028 RMK A01 T10241058  RH  077%=      5-min Rain = 0
KGGS 201255Z 14005KT M02/M06 A3027 RMK A01 T10241059  RH  077%=      5-min Rain = 0
KGGS 201300Z 15006KT M03/M06 A3027 RMK A01 T10251059  RH  078%=      5-min Rain = 0
KGGS 201305Z 14006KT M03/M06 A3027 RMK A01 T10251057  RH  078%=      5-min Rain = 0
KGGS 201310Z 14008KT M02/M05 A3027 RMK A01 T10221054  RH  079%=      5-min Rain = 0
KGGS 201315Z 14007KT M02/M05 A3027 RMK A01 T10211054  RH  078%=      5-min Rain = 0
KGGS 201320Z 14007KT M02/M05 A3027 RMK A01 T10211054  RH  078%=      5-min Rain = 0
KGGS 201325Z 15007KT M02/M05 A3027 RMK A01 T10221054  RH  078%=      5-min Rain = 0
KGGS 201330Z 14007KT M02/M06 A3028 RMK A01 T10221055  RH  079%=      5-min Rain = 0
KGGS 201335Z 14007KT M02/M06 A3028 RMK A01 T10221055  RH  079%=      5-min Rain = 0
KGGS 201340Z 14007KT M02/M06 A3028 RMK A01 T10231055  RH  079%=      5-min Rain = 0
KGGS 201345Z 14006KT M02/M06 A3028 RMK A01 T10231055  RH  079%=      5-min Rain = 0
KGGS 201350Z 14006KT M02/M06 A3028 RMK A01 T10241055  RH  079%=      5-min Rain = 0
KGGS 201355Z 15006KT M03/M06 A3028 RMK A01 T10251056  RH  080%=      5-min Rain = 0
KGGS 201400Z 14005KT M03/M06 A3028 RMK A01 T10251055  RH  080%=      5-min Rain = 0
KGGS 201405Z 14006KT M02/M05 A3028 RMK A01 T10241053  RH  081%=      5-min Rain = 0
KGGS 201410Z 14005KT M02/M05 A3029 RMK A01 T10221051  RH  081%=      5-min Rain = 0
KGGS 201415Z 14005KT M02/M05 A3029 RMK A01 T10221051  RH  081%=      5-min Rain = 0
KGGS 201420Z 14005KT M02/M05 A3029 RMK A01 T10211050  RH  081%=      5-min Rain = 0
KGGS 201425Z 14005KT M02/M05 A3029 RMK A01 T10191048  RH  081%=      5-min Rain = 0
KGGS 201430Z 13006KT M02/M05 A3029 RMK A01 T10171047  RH  080%=      5-min Rain = 0
KGGS 201435Z 13007KT M02/M05 A3028 RMK A01 T10161048  RH  079%=      5-min Rain = 0
KGGS 201440Z 14006KT M02/M05 A3028 RMK A01 T10151047  RH  079%=      5-min Rain = 0
KGGS 201445Z 13006KT M01/M05 A3028 RMK A01 T10141047  RH  079%=      5-min Rain = 0
KGGS 201450Z 14006KT M01/M05 A3028 RMK A01 T10121046  RH  078%=      5-min Rain = 0
KGGS 201455Z 14005KT M01/M04 A3028 RMK A01 T10061042  RH  077%=      5-min Rain = 0
KGGS 201500Z 14004KT M00/M04 A3028 RMK A01 T10021040  RH  076%=      5-min Rain = 0
KGGS 201505Z 15004KT 00/M04 A3029 RMK A01 T00041038  RH  074%=      5-min Rain = 0
KGGS 201510Z 15005KT 01/M04 A3029 RMK A01 T00111036  RH  071%=      5-min Rain = 0
KGGS 201515Z 16007KT 02/M04 A3029 RMK A01 T00171036  RH  069%=      5-min Rain = 0
KGGS 201520Z 16008KT 02/M04 A3028 RMK A01 T00181041  RH  065%=      5-min Rain = 0
KGGS 201525Z 16009KT 02/M04 A3028 RMK A01 T00201041  RH  064%=      5-min Rain = 0
KGGS 201530Z 15009KT 02/M04 A3028 RMK A01 T00211044  RH  063%=      5-min Rain = 0
KGGS 201535Z 16008KT 02/M04 A3028 RMK A01 T00221043  RH  062%=      5-min Rain = 0
KGGS 201540Z 16009KT 02/M04 A3028 RMK A01 T00231044  RH  061%=      5-min Rain = 0
KGGS 201545Z 17007KT 03/M04 A3028 RMK A01 T00251042  RH  061%=      5-min Rain = 0
KGGS 201550Z 16008KT 02/M04 A3028 RMK A01 T00231044  RH  061%=      5-min Rain = 0
KGGS 201555Z 16007KT 02/M04 A3028 RMK A01 T00231043  RH  062%=      5-min Rain = 0
KGGS 201600Z 17006KT 02/M04 A3028 RMK A01 T00221042  RH  063%=      5-min Rain = 0
KGGS 201605Z 17006KT 02/M04 A3028 RMK A01 T00221041  RH  063%=      5-min Rain = 0
KGGS 201610Z 17006KT 03/M04 A3028 RMK A01 T00251039  RH  063%=      5-min Rain = 0
KGGS 201615Z 18007KT 03/M04 A3028 RMK A01 T00301036  RH  062%=      5-min Rain = 0
KGGS 201620Z 17007KT 04/M04 A3028 RMK A01 T00351037  RH  060%=      5-min Rain = 0
KGGS 201625Z 18008KT 04/M04 A3027 RMK A01 T00381038  RH  058%=      5-min Rain = 0
KGGS 201630Z 20009KT 04/M04 A3027 RMK A01 T00411036  RH  057%=      5-min Rain = 0
KGGS 201635Z 19009KT 04/M04 A3027 RMK A01 T00421037  RH  057%=      5-min Rain = 0
KGGS 201640Z 19008KT 04/M04 A3027 RMK A01 T00431035  RH  057%=      5-min Rain = 0
KGGS 201645Z 19009KT 05/M03 A3026 RMK A01 T00471033  RH  057%=      5-min Rain = 0
KGGS 201650Z 18008KT 05/M03 A3027 RMK A01 T00511030  RH  056%=      5-min Rain = 0
KGGS 201655Z 19009KT 05/M03 A3026 RMK A01 T00541031  RH  055%=      5-min Rain = 0
KGGS 201700Z 19009KT 06/M03 A3026 RMK A01 T00571030  RH  054%=      5-min Rain = 0
KGGS 201705Z 19010KT 06/M03 A3026 RMK A01 T00601029  RH  053%=      5-min Rain = 0
KGGS 201710Z 20009KT 07/M03 A3026 RMK A01 T00651028  RH  052%=      5-min Rain = 0
KGGS 201715Z 19008G13KT 07/M03 A3025 RMK A01 T00721025  RH  050%=      5-min Rain = 0
KGGS 201720Z 18009KT 08/M03 A3025 RMK A01 T00761025  RH  049%=      5-min Rain = 0
KGGS 201725Z 19009KT 08/M02 A3025 RMK A01 T00841023  RH  047%=      5-min Rain = 0
KGGS 201730Z 20009KT 09/M02 A3025 RMK A01 T00871024  RH  046%=      5-min Rain = 0
KGGS 201735Z 19009KT 09/M02 A3024 RMK A01 T00901023  RH  045%=      5-min Rain = 0
KGGS 201740Z 20009KT 10/M02 A3025 RMK A01 T01021021  RH  042%=      5-min Rain = 0
KGGS 201745Z 20011G16KT 11/M03 A3024 RMK A01 T01121026  RH  038%=      5-min Rain = 0
KGGS 201750Z 19011G17KT 11/M03 A3024 RMK A01 T01101027  RH  038%=      5-min Rain = 0
KGGS 201755Z 20011G16KT 11/M03 A3024 RMK A01 T01141026  RH  038%=      5-min Rain = 0
KGGS 201800Z 20011KT 12/M03 A3023 RMK A01 T01181025  RH  037%=      5-min Rain = 0
KGGS 201805Z 21012KT 12/M03 A3023 RMK A01 T01181027  RH  037%=      5-min Rain = 0
KGGS 201810Z 19011KT 12/M03 A3023 RMK A01 T01191026  RH  036%=      5-min Rain = 0
KGGS 201815Z 21011KT 12/M03 A3022 RMK A01 T01201027  RH  036%=      5-min Rain = 0
KGGS 201820Z 21011KT 12/M03 A3022 RMK A01 T01201027  RH  036%=      5-min Rain = 0
KGGS 201825Z 20011KT 12/M03 A3022 RMK A01 T01231027  RH  035%=      5-min Rain = 0
KGGS 201830Z 20011KT 12/M03 A3021 RMK A01 T01231027  RH  035%=      5-min Rain = 0
KGGS 201835Z 20010KT 12/M03 A3021 RMK A01 T01241025  RH  036%=      5-min Rain = 0
KGGS 201840Z 21010KT 13/M02 A302 RMK A01 T01321024  RH  034%=      5-min Rain = 0
KGGS 201845Z 21010KT 14/M02 A302 RMK A01 T01351023  RH  033%=      5-min Rain = 0
KGGS 201850Z 19011KT 14/M03 A3019 RMK A01 T01371025  RH  033%=      5-min Rain = 0
KGGS 201855Z 20010G15KT 14/M03 A3018 RMK A01 T01431025  RH  032%=      5-min Rain = 0
KGGS 201900Z 20011G17KT 14/M03 A3018 RMK A01 T01431027  RH  031%=      5-min Rain = 0
KGGS 201905Z 19010KT 14/M03 A3017 RMK A01 T01361030  RH  032%=      5-min Rain = 0
KGGS 201910Z 20010KT 14/M03 A3017 RMK A01 T01381030  RH  031%=      5-min Rain = 0
KGGS 201915Z 20010KT 14/M03 A3017 RMK A01 T01391031  RH  031%=      5-min Rain = 0
KGGS 201920Z 20009KT 14/M03 A3017 RMK A01 T01431029  RH  031%=      5-min Rain = 0
KGGS 201925Z 21010KT 14/M03 A3016 RMK A01 T01421031  RH  030%=      5-min Rain = 0
KGGS 201930Z 20010KT 15/M03 A3015 RMK A01 T01461029  RH  030%=      5-min Rain = 0
KGGS 201935Z 21010KT 15/M03 A3015 RMK A01 T01451030  RH  030%=      5-min Rain = 0
KGGS 201940Z 20009KT 15/M03 A3015 RMK A01 T01521027  RH  029%=      5-min Rain = 0
KGGS 201945Z 21011G17KT 15/M03 A3015 RMK A01 T01521030  RH  029%=      5-min Rain = 0
KGGS 201950Z 22012G17KT 15/M03 A3014 RMK A01 T01521033  RH  028%=      5-min Rain = 0
KGGS 201955Z 21010G15KT 15/M03 A3014 RMK A01 T01501034  RH  028%=      5-min Rain = 0
KGGS 202000Z 21010KT 16/M03 A3014 RMK A01 T01561030  RH  028%=      5-min Rain = 0
KGGS 202005Z 20012KT 16/M03 A3014 RMK A01 T01601031  RH  027%=      5-min Rain = 0
KGGS 202010Z 20011G17KT 16/M03 A3014 RMK A01 T01581032  RH  027%=      5-min Rain = 0
KGGS 202015Z 22011KT 16/M03 A3013 RMK A01 T01561034  RH  027%=      5-min Rain = 0
KGGS 202020Z 21011G17KT 16/M03 A3013 RMK A01 T01641031  RH  026%=      5-min Rain = 0
KGGS 202025Z 21011G17KT 17/M03 A3013 RMK A01 T01671032  RH  026%=      5-min Rain = 0
KGGS 202030Z 20012G18KT 17/M04 A3012 RMK A01 T01661035  RH  025%=      5-min Rain = 0
KGGS 202035Z 21014G19KT 17/M04 A3012 RMK A01 T01691035  RH  025%=      5-min Rain = 0
KGGS 202040Z 22012G17KT 17/M04 A3012 RMK A01 T01691035  RH  025%=      5-min Rain = 0
KGGS 202045Z 21012G18KT 17/M03 A3012 RMK A01 T01671034  RH  025%=      5-min Rain = 0
KGGS 202050Z 21011G17KT 17/M03 A3012 RMK A01 T01721031  RH  025%=      5-min Rain = 0
KGGS 202055Z 20012KT 17/M03 A3011 RMK A01 T01711033  RH  025%=      5-min Rain = 0
KGGS 202100Z 20011G16KT 17/M03 A3011 RMK A01 T01701032  RH  025%=      5-min Rain = 0
KGGS 202105Z 20011G16KT 17/M03 A301 RMK A01 T01711033  RH  025%=      5-min Rain = 0
KGGS 202110Z 21011G16KT 17/M04 A301 RMK A01 T01691036  RH  024%=      5-min Rain = 0
KGGS 202115Z 20012KT 17/M04 A301 RMK A01 T01701035  RH  025%=      5-min Rain = 0
KGGS 202120Z 20009KT 17/M04 A301 RMK A01 T01721036  RH  024%=      5-min Rain = 0
KGGS 202125Z 20011G18KT 18/M04 A301 RMK A01 T01761038  RH  023%=      5-min Rain = 0
KGGS 202130Z 20013KT 18/M04 A301 RMK A01 T01751042  RH  022%=      5-min Rain = 0
KGGS 202135Z 20012KT 18/M04 A3009 RMK A01 T01771043  RH  022%=      5-min Rain = 0
KGGS 202140Z 20012G17KT 18/M05 A3009 RMK A01 T01751047  RH  022%=      5-min Rain = 0
KGGS 202145Z 20012KT 18/M05 A3009 RMK A01 T01761049  RH  021%=      5-min Rain = 0
KGGS 202150Z 20011KT 18/M05 A3009 RMK A01 T01771049  RH  021%=      5-min Rain = 0
KGGS 202155Z 20012KT 18/M05 A3009 RMK A01 T01771048  RH  021%=      5-min Rain = 0
KGGS 202200Z 19011KT 18/M05 A3009 RMK A01 T01751048  RH  021%=      5-min Rain = 0
KGGS 202205Z 20009KT 18/M05 A3009 RMK A01 T01771045  RH  022%=      5-min Rain = 0
KGGS 202210Z 19011G16KT 18/M05 A3009 RMK A01 T01781047  RH  021%=      5-min Rain = 0
KGGS 202215Z 20012KT 18/M05 A3008 RMK A01 T01771046  RH  022%=      5-min Rain = 0
KGGS 202220Z 19012KT 17/M05 A3008 RMK A01 T01741047  RH  022%=      5-min Rain = 0
KGGS 202225Z 19012KT 18/M05 A3008 RMK A01 T01751046  RH  022%=      5-min Rain = 0
KGGS 202230Z 19013KT 17/M05 A3008 RMK A01 T01741046  RH  022%=      5-min Rain = 0
KGGS 202235Z 19012G17KT 18/M05 A3008 RMK A01 T01751045  RH  022%=      5-min Rain = 0
KGGS 202240Z 18012KT 17/M05 A3008 RMK A01 T01741047  RH  022%=      5-min Rain = 0
KGGS 202245Z 18012G17KT 17/M05 A3008 RMK A01 T01731046  RH  022%=      5-min Rain = 0
KGGS 202250Z 19012G17KT 17/M05 A3008 RMK A01 T01731046  RH  022%=      5-min Rain = 0
KGGS 202255Z 19010G15KT 17/M04 A3008 RMK A01 T01711044  RH  023%=      5-min Rain = 0
KGGS 202300Z 20012G18KT 16/M05 A3008 RMK A01 T01641045  RH  024%=      5-min Rain = 0
KGGS 202305Z 20009KT 17/M04 A3008 RMK A01 T01661042  RH  024%=      5-min Rain = 0
KGGS 202310Z 20011KT 17/M04 A3008 RMK A01 T01681043  RH  023%=      5-min Rain = 0
KGGS 202315Z 20009KT 17/M04 A3008 RMK A01 T01671042  RH  024%=      5-min Rain = 0
KGGS 202320Z 20010KT 17/M04 A3008 RMK A01 T01661041  RH  024%=      5-min Rain = 0
KGGS 202325Z 19011KT 16/M04 A3008 RMK A01 T01631042  RH  024%=      5-min Rain = 0
KGGS 202330Z 19009KT 16/M04 A3008 RMK A01 T01611041  RH  025%=      5-min Rain = 0
KGGS 202335Z 19010KT 16/M04 A3008 RMK A01 T01591041  RH  025%=      5-min Rain = 0
KGGS 202340Z 18009KT 15/M04 A3008 RMK A01 T01541039  RH  026%=      5-min Rain = 0
KGGS 202345Z 18008KT 15/M04 A3008 RMK A01 T01501038  RH  027%=      5-min Rain = 0
KGGS 202350Z 18008KT 15/M04 A3008 RMK A01 T01461037  RH  028%=      5-min Rain = 0
KGGS 202355Z 17007KT 14/M04 A3008 RMK A01 T01421036  RH  029%=      5-min Rain = 0
KGGS 210000Z 17008KT 14/M04 A3008 RMK A01 T01391035  RH  030%=      5-min Rain = 0
KGGS 210005Z 17008KT 14/M04 A3007 RMK A01 T01361035  RH  030%=      5-min Rain = 0
KGGS 210010Z 17008KT 13/M04 A3007 RMK A01 T01341035  RH  031%=      5-min Rain = 0
KGGS 210015Z 17008KT 13/M04 A3007 RMK A01 T01321035  RH  031%=      5-min Rain = 0
KGGS 210020Z 18008KT 13/M04 A3007 RMK A01 T01291035  RH  032%=      5-min Rain = 0
KGGS 210025Z 17008KT 13/M04 A3007 RMK A01 T01271035  RH  032%=      5-min Rain = 0
KGGS 210030Z 17008KT 13/M04 A3007 RMK A01 T01251036  RH  032%=      5-min Rain = 0
KGGS 210035Z 17008KT 12/M04 A3007 RMK A01 T01231036  RH  033%=      5-min Rain = 0
KGGS 210040Z 17009KT 12/M04 A3007 RMK A01 T01201036  RH  034%=      5-min Rain = 0
KGGS 210045Z 17009KT 12/M04 A3006 RMK A01 T01201036  RH  033%=      5-min Rain = 0
KGGS 210050Z 17009KT 12/M04 A3006 RMK A01 T01191037  RH  034%=      5-min Rain = 0
KGGS 210055Z 17009KT 12/M04 A3006 RMK A01 T01191037  RH  033%=      5-min Rain = 0
KGGS 210100Z 17008KT 12/M04 A3007 RMK A01 T01181037  RH  034%=      5-min Rain = 0
KGGS 210105Z 17007KT 11/M04 A3007 RMK A01 T01121037  RH  035%=      5-min Rain = 0
KGGS 210110Z 18007KT 11/M04 A3007 RMK A01 T01071037  RH  036%=      5-min Rain = 0
KGGS 210115Z 18008KT 11/M04 A3007 RMK A01 T01061036  RH  037%=      5-min Rain = 0
KGGS 210120Z 18007KT 10/M04 A3006 RMK A01 T01041036  RH  037%=      5-min Rain = 0
KGGS 210125Z 18007KT 10/M04 A3006 RMK A01 T01021036  RH  038%=      5-min Rain = 0
KGGS 210130Z 18007KT 10/M04 A3006 RMK A01 T01011036  RH  038%=      5-min Rain = 0
KGGS 210135Z 19007KT 10/M04 A3006 RMK A01 T00971036  RH  039%=      5-min Rain = 0
KGGS 210140Z 18007KT 09/M04 A3006 RMK A01 T00921036  RH  041%=      5-min Rain = 0
KGGS 210145Z 18007KT 09/M04 A3006 RMK A01 T00891036  RH  041%=      5-min Rain = 0
KGGS 210150Z 19006KT 09/M04 A3006 RMK A01 T00851036  RH  042%=      5-min Rain = 0
KGGS 210155Z 19007KT 08/M04 A3006 RMK A01 T00801037  RH  044%=      5-min Rain = 0
KGGS 210200Z 18007KT 08/M04 A3006 RMK A01 T00771037  RH  045%=      5-min Rain = 0
KGGS 210205Z 18006KT 08/M04 A3006 RMK A01 T00751036  RH  046%=      5-min Rain = 0
KGGS 210210Z 18006KT 08/M04 A3006 RMK A01 T00751035  RH  046%=      5-min Rain = 0
KGGS 210215Z 18007KT 08/M04 A3006 RMK A01 T00761035  RH  045%=      5-min Rain = 0
KGGS 210220Z 18007KT 08/M04 A3006 RMK A01 T00761035  RH  045%=      5-min Rain = 0
KGGS 210225Z 18007KT 08/M04 A3005 RMK A01 T00771035  RH  045%=      5-min Rain = 0
KGGS 210230Z 18008KT 08/M04 A3005 RMK A01 T00781035  RH  045%=      5-min Rain = 0
KGGS 210235Z 18008KT 08/M03 A3005 RMK A01 T00791034  RH  045%=      5-min Rain = 0
KGGS 210240Z 18007KT 08/M03 A3005 RMK A01 T00811033  RH  045%=      5-min Rain = 0
KGGS 210245Z 18007KT 08/M03 A3005 RMK A01 T00801032  RH  045%=      5-min Rain = 0
KGGS 210250Z 18007KT 08/M03 A3004 RMK A01 T00791032  RH  046%=      5-min Rain = 0
KGGS 210255Z 17006KT 08/M03 A3004 RMK A01 T00781031  RH  046%=      5-min Rain = 0
KGGS 210300Z 17006KT 08/M03 A3004 RMK A01 T00781030  RH  047%=      5-min Rain = 0
KGGS 210305Z 18006KT 08/M03 A3004 RMK A01 T00761030  RH  047%=      5-min Rain = 0
KGGS 210310Z 18006KT 08/M03 A3004 RMK A01 T00751029  RH  048%=      5-min Rain = 0
KGGS 210315Z 17006KT 07/M03 A3004 RMK A01 T00731029  RH  049%=      5-min Rain = 0
KGGS 210320Z 17006KT 07/M03 A3004 RMK A01 T00721028  RH  049%=      5-min Rain = 0
KGGS 210325Z 17006KT 07/M03 A3004 RMK A01 T00701028  RH  050%=      5-min Rain = 0
KGGS 210330Z 17006KT 07/M03 A3004 RMK A01 T00681028  RH  051%=      5-min Rain = 0
KGGS 210335Z 17006KT 07/M03 A3003 RMK A01 T00661028  RH  051%=      5-min Rain = 0
KGGS 210340Z 17006KT 07/M03 A3003 RMK A01 T00661027  RH  052%=      5-min Rain = 0
KGGS 210345Z 17006KT 07/M03 A3003 RMK A01 T00661027  RH  052%=      5-min Rain = 0
KGGS 210350Z 18007KT 07/M03 A3003 RMK A01 T00661026  RH  052%=      5-min Rain = 0
KGGS 210355Z 17006KT 07/M03 A3003 RMK A01 T00671025  RH  052%=      5-min Rain = 0
KGGS 210400Z 17006KT 07/M02 A3003 RMK A01 T00701024  RH  052%=      5-min Rain = 0
KGGS 210405Z 17006KT 07/M03 A3003 RMK A01 T00671025  RH  052%=      5-min Rain = 0
KGGS 210410Z 17006KT 07/M02 A3002 RMK A01 T00651024  RH  053%=      5-min Rain = 0
KGGS 210415Z 17005KT 06/M02 A3002 RMK A01 T00631024  RH  054%=      5-min Rain = 0
KGGS 210420Z 18006KT 06/M02 A3002 RMK A01 T00621024  RH  054%=      5-min Rain = 0
KGGS 210425Z 18006KT 06/M02 A3003 RMK A01 T00631022  RH  055%=      5-min Rain = 0
KGGS 210430Z 18005KT 06/M02 A3003 RMK A01 T00631021  RH  055%=      5-min Rain = 0
KGGS 210435Z 18006KT 06/M02 A3003 RMK A01 T00621021  RH  056%=      5-min Rain = 0
KGGS 210440Z 18007KT 06/M02 A3002 RMK A01 T00631018  RH  057%=      5-min Rain = 0
KGGS 210445Z 18008KT 07/M02 A3003 RMK A01 T00731015  RH  054%=      5-min Rain = 0
KGGS 210450Z 19009KT 08/M02 A3003 RMK A01 T00801015  RH  051%=      5-min Rain = 0
KGGS 210455Z 19009KT 08/M02 A3003 RMK A01 T00821016  RH  051%=      5-min Rain = 0
KGGS 210500Z 19008KT 08/M02 A3003 RMK A01 T00811016  RH  051%=      5-min Rain = 0
KGGS 210505Z 19008KT 08/M02 A3003 RMK A01 T00791017  RH  051%=      5-min Rain = 0
KGGS 210510Z 19008KT 08/M02 A3003 RMK A01 T00781017  RH  052%=      5-min Rain = 0
KGGS 210515Z 20007KT 08/M02 A3004 RMK A01 T00751017  RH  052%=      5-min Rain = 0
KGGS 210520Z 20006KT 07/M02 A3004 RMK A01 T00731017  RH  053%=      5-min Rain = 0
KGGS 210525Z 20007KT 07/M02 A3004 RMK A01 T00721017  RH  053%=      5-min Rain = 0
KGGS 210530Z 20008KT 08/M02 A3004 RMK A01 T00771016  RH  052%=      5-min Rain = 0
KGGS 210535Z 20007KT 08/M02 A3004 RMK A01 T00771015  RH  052%=      5-min Rain = 0
KGGS 210540Z 20007KT 07/M02 A3004 RMK A01 T00741015  RH  054%=      5-min Rain = 0
KGGS 210545Z 20008KT 07/M02 A3004 RMK A01 T00731015  RH  054%=      5-min Rain = 0
KGGS 210550Z 21007KT 07/M02 A3004 RMK A01 T00711015  RH  055%=      5-min Rain = 0
KGGS 210555Z 20008KT 07/M01 A3004 RMK A01 T00731014  RH  055%=      5-min Rain = 0

Page generated in 0.0089 seconds.